createdAt,value
2022-11-30T00:03:54.185Z,28.35
2022-11-30T00:10:38.827Z,28.92
2022-11-30T00:17:21.228Z,28.95
2022-11-30T00:24:06.042Z,26.08
2022-11-30T00:31:00.460Z,27.88
2022-11-30T00:37:42.964Z,27.85
2022-11-30T00:44:25.417Z,26.90
2022-11-30T00:51:09.075Z,28.40
2022-11-30T00:57:51.423Z,28.83
2022-11-30T01:04:34.004Z,27.73
2022-11-30T01:11:21.507Z,29.50
2022-11-30T01:18:04.449Z,26.77
2022-11-30T01:24:47.193Z,29.77
2022-11-30T01:31:29.737Z,28.58
2022-11-30T01:38:12.130Z,28.73
2022-11-30T01:44:56.777Z,28.83
2022-11-30T01:51:56.800Z,27.23
2022-11-30T01:58:39.544Z,26.67
2022-11-30T02:05:22.805Z,27.77
2022-11-30T02:12:08.005Z,26.98
2022-11-30T02:19:15.030Z,26.08
2022-11-30T02:26:39.169Z,26.10
2022-11-30T02:33:27.648Z,27.00
2022-11-30T02:40:13.476Z,25.25
2022-11-30T02:47:16.360Z,25.15
2022-11-30T02:53:58.974Z,25.35
2022-11-30T03:00:41.556Z,25.90
2022-11-30T03:07:24.163Z,24.63
2022-11-30T03:14:06.687Z,24.55
2022-11-30T03:20:49.050Z,23.65
2022-11-30T03:27:31.462Z,22.92
2022-11-30T03:34:13.894Z,23.92
2022-11-30T03:41:05.605Z,22.98
2022-11-30T03:47:48.027Z,23.55
2022-11-30T03:54:30.467Z,24.92
2022-11-30T04:01:16.055Z,23.98
2022-11-30T04:07:58.513Z,23.95
2022-11-30T04:14:40.889Z,23.25
2022-11-30T04:21:23.271Z,21.38
2022-11-30T04:28:05.656Z,23.05
2022-11-30T04:34:48.176Z,22.60
2022-11-30T04:41:30.856Z,21.33
2022-11-30T04:48:13.706Z,21.45
2022-11-30T04:54:56.905Z,21.42
2022-11-30T05:01:39.502Z,19.25
2022-11-30T05:08:22.133Z,19.27
2022-11-30T05:15:05.232Z,19.42
2022-11-30T05:21:47.678Z,19.08
2022-11-30T05:28:30.164Z,19.25
2022-11-30T05:35:12.564Z,18.52
2022-11-30T05:41:54.984Z,17.45
2022-11-30T05:48:37.915Z,18.33
2022-11-30T05:55:20.313Z,18.63
2022-11-30T06:02:02.854Z,17.33
2022-11-30T06:08:46.912Z,17.77
2022-11-30T06:15:30.052Z,17.55
2022-11-30T06:22:12.462Z,17.70
2022-11-30T06:28:55.007Z,17.73
2022-11-30T06:35:37.362Z,17.30
2022-11-30T06:42:19.909Z,17.05
2022-11-30T06:49:02.573Z,16.25
2022-11-30T06:55:45.008Z,15.88
2022-11-30T07:02:27.587Z,15.40
2022-11-30T07:09:11.008Z,14.60
2022-11-30T07:15:53.643Z,14.88
2022-11-30T07:22:36.013Z,16.00
2022-11-30T07:29:18.445Z,17.60
2022-11-30T07:36:00.939Z,14.90
2022-11-30T07:42:43.373Z,15.93
2022-11-30T07:49:25.807Z,16.58
2022-11-30T07:56:15.432Z,15.75
2022-11-30T08:02:57.979Z,14.82
2022-11-30T08:09:40.359Z,15.43
2022-11-30T08:16:25.860Z,13.98
2022-11-30T08:23:17.915Z,14.73
2022-11-30T08:30:01.499Z,15.73
2022-11-30T08:36:47.123Z,15.27
2022-11-30T08:43:33.414Z,15.57
2022-11-30T08:50:15.909Z,16.58
2022-11-30T08:56:59.108Z,15.73
2022-11-30T09:03:42.924Z,14.82
2022-11-30T09:10:25.298Z,16.10
2022-11-30T09:17:07.715Z,15.82
2022-11-30T09:23:51.130Z,17.05
2022-11-30T09:30:33.654Z,17.05
2022-11-30T09:37:16.055Z,18.08
2022-11-30T09:44:23.322Z,17.95
2022-11-30T09:51:12.205Z,17.08
2022-11-30T09:58:00.523Z,16.52
2022-11-30T10:04:43.187Z,17.30
2022-11-30T10:11:50.376Z,17.45
2022-11-30T10:18:39.998Z,17.25
2022-11-30T10:25:24.843Z,17.67
2022-11-30T10:32:35.486Z,15.50
2022-11-30T10:39:31.762Z,17.13
2022-11-30T10:46:38.977Z,15.63
2022-11-30T10:53:22.955Z,15.55
2022-11-30T11:00:06.978Z,15.98
2022-11-30T11:06:53.442Z,15.52
2022-11-30T11:13:39.053Z,15.27
2022-11-30T11:20:35.021Z,14.23
2022-11-30T11:27:39.939Z,13.20
2022-11-30T11:34:32.216Z,13.15
2022-11-30T11:41:34.775Z,13.68
2022-11-30T11:48:36.015Z,13.75
2022-11-30T11:55:21.126Z,14.48
2022-11-30T12:02:11.850Z,14.02
2022-11-30T12:09:07.628Z,12.10
2022-11-30T12:16:22.156Z,13.35
2022-11-30T12:23:33.255Z,14.75
2022-11-30T12:30:18.560Z,15.10
2022-11-30T12:37:14.595Z,15.93
2022-11-30T12:44:08.887Z,14.48
2022-11-30T12:51:00.746Z,14.68
2022-11-30T12:58:27.720Z,14.00
2022-11-30T13:05:15.669Z,13.02
2022-11-30T13:12:07.584Z,14.07
2022-11-30T13:18:52.664Z,12.85
2022-11-30T13:26:07.452Z,12.25
2022-11-30T13:33:00.312Z,12.68
2022-11-30T13:39:49.299Z,12.10
2022-11-30T13:46:31.733Z,13.00
2022-11-30T13:53:25.877Z,12.55
2022-11-30T14:01:02.274Z,14.38
2022-11-30T14:07:46.236Z,11.70
2022-11-30T14:14:45.701Z,11.07
2022-11-30T14:21:33.486Z,10.95
2022-11-30T14:28:19.981Z,12.23
2022-11-30T14:35:24.493Z,12.43
2022-11-30T14:42:18.658Z,12.02
2022-11-30T14:49:24.043Z,13.55
2022-11-30T14:56:16.630Z,12.50
2022-11-30T15:02:59.046Z,14.52
2022-11-30T15:09:44.869Z,15.50
2022-11-30T15:16:29.228Z,14.50
2022-11-30T15:23:15.879Z,14.77
2022-11-30T15:30:00.732Z,15.23
2022-11-30T15:36:43.797Z,14.40
2022-11-30T15:43:26.752Z,15.32
2022-11-30T15:50:39.566Z,15.43
2022-11-30T15:57:24.660Z,14.77
2022-11-30T16:04:07.906Z,16.08
2022-11-30T16:10:50.782Z,16.23
2022-11-30T16:17:33.834Z,15.43
2022-11-30T16:24:17.101Z,16.42
2022-11-30T16:31:01.034Z,16.67
2022-11-30T16:37:43.476Z,15.50
2022-11-30T16:44:25.851Z,18.58
2022-11-30T16:51:18.352Z,18.75
2022-11-30T16:58:01.931Z,16.80
2022-11-30T17:04:45.328Z,15.50
2022-11-30T17:11:31.997Z,15.52
2022-11-30T17:18:14.845Z,13.82
2022-11-30T17:24:57.327Z,14.80
2022-11-30T17:31:40.097Z,16.10
2022-11-30T17:38:25.225Z,14.13
2022-11-30T17:45:08.878Z,11.30
2022-11-30T17:51:54.735Z,11.30
2022-11-30T17:58:43.870Z,10.90
2022-11-30T18:05:27.450Z,11.13
2022-11-30T18:12:10.564Z,12.25
2022-11-30T18:18:53.998Z,12.10
2022-11-30T18:25:36.570Z,11.75
2022-11-30T18:32:21.546Z,12.77
2022-11-30T18:39:04.047Z,12.57
2022-11-30T18:45:46.751Z,12.98
2022-11-30T18:52:29.198Z,12.07
2022-11-30T18:59:15.314Z,13.40
2022-11-30T19:05:57.812Z,12.18
2022-11-30T19:12:40.249Z,13.77
2022-11-30T19:19:22.730Z,14.30
2022-11-30T19:26:06.594Z,12.93
2022-11-30T19:32:49.280Z,14.00
2022-11-30T19:39:32.989Z,13.63
2022-11-30T19:46:17.077Z,13.00
2022-11-30T19:53:00.145Z,13.25
2022-11-30T19:59:42.583Z,12.30
2022-11-30T20:06:29.751Z,12.68
2022-11-30T20:13:12.262Z,12.60
2022-11-30T20:19:54.625Z,11.25
2022-11-30T20:26:41.433Z,11.48
2022-11-30T20:33:23.799Z,10.52
2022-11-30T20:40:06.971Z,10.38
2022-11-30T20:46:49.306Z,11.60
2022-11-30T20:53:31.667Z,11.35
2022-11-30T21:00:15.015Z,11.52
2022-11-30T21:06:57.480Z,10.15
2022-11-30T21:13:41.865Z,10.88
2022-11-30T21:20:24.285Z,10.57
2022-11-30T21:27:07.048Z,10.95
2022-11-30T21:33:53.262Z,10.65
2022-11-30T21:40:36.137Z,10.10
2022-11-30T21:47:18.826Z,11.32
2022-11-30T21:54:03.938Z,11.20
2022-11-30T22:00:53.411Z,12.02
2022-11-30T22:07:35.798Z,11.23
2022-11-30T22:14:18.210Z,12.02
2022-11-30T22:21:08.930Z,10.77
2022-11-30T22:27:51.368Z,13.18
2022-11-30T22:34:33.837Z,12.95
2022-11-30T22:41:17.171Z,13.75
2022-11-30T22:47:59.624Z,14.45
2022-11-30T22:54:42.089Z,14.00
2022-11-30T23:01:27.243Z,14.77
2022-11-30T23:08:09.712Z,15.18
2022-11-30T23:14:52.106Z,14.27
2022-11-30T23:21:41.363Z,16.63
2022-11-30T23:28:23.905Z,16.17
2022-11-30T23:35:06.736Z,16.67
2022-11-30T23:41:49.385Z,16.77
2022-11-30T23:48:32.331Z,16.33
2022-11-30T23:55:14.970Z,15.80
